createdAt,value
2019-01-31T00:02:10.506Z,45.00
2019-01-31T00:07:59.985Z,43.70
2019-01-31T00:13:37.634Z,47.57
2019-01-31T00:18:51.154Z,44.90
2019-01-31T00:24:15.244Z,44.63
2019-01-31T00:29:39.667Z,42.47
2019-01-31T00:34:56.790Z,44.07
2019-01-31T00:40:25.513Z,46.03
2019-01-31T00:45:56.669Z,41.93
2019-01-31T00:51:12.278Z,42.83
2019-01-31T00:56:39.589Z,41.20
2019-01-31T01:02:31.498Z,42.17
2019-01-31T01:07:53.270Z,40.47
2019-01-31T01:13:05.966Z,43.93
2019-01-31T01:18:31.527Z,46.00
2019-01-31T01:23:47.930Z,45.70
2019-01-31T01:29:41.258Z,44.97
2019-01-31T01:35:32.845Z,47.93
2019-01-31T01:41:27.254Z,44.70
2019-01-31T01:47:06.733Z,43.23
2019-01-31T01:52:23.561Z,48.80
2019-01-31T01:58:04.397Z,47.83
2019-01-31T02:03:43.199Z,46.30
2019-01-31T02:09:12.271Z,50.83
2019-01-31T02:14:59.749Z,47.73
2019-01-31T02:20:57.030Z,45.40
2019-01-31T02:27:09.039Z,46.63
2019-01-31T02:32:39.914Z,49.07
2019-01-31T02:38:04.625Z,48.87
2019-01-31T02:43:51.937Z,47.77
2019-01-31T02:49:27.329Z,48.13
2019-01-31T02:55:04.733Z,49.43
2019-01-31T03:00:24.125Z,46.50
2019-01-31T03:06:08.117Z,47.97
2019-01-31T03:11:46.349Z,45.50
2019-01-31T03:17:16.810Z,46.67
2019-01-31T03:23:19.901Z,50.40
2019-01-31T03:28:49.528Z,50.37
2019-01-31T03:34:04.409Z,52.47
2019-01-31T03:39:25.142Z,49.00
2019-01-31T03:44:34.173Z,49.57
2019-01-31T03:50:08.419Z,49.63
2019-01-31T03:55:50.087Z,50.87
2019-01-31T04:01:20.814Z,49.97
2019-01-31T04:06:34.009Z,51.40
2019-01-31T04:11:37.773Z,50.37
2019-01-31T04:16:41.440Z,50.23
2019-01-31T04:21:45.123Z,47.93
2019-01-31T04:26:48.871Z,50.70
2019-01-31T04:31:52.615Z,50.80
2019-01-31T04:36:56.289Z,49.13
2019-01-31T04:41:59.950Z,50.83
2019-01-31T04:47:03.694Z,48.53
2019-01-31T04:52:07.428Z,48.87
2019-01-31T04:57:11.168Z,50.90
2019-01-31T05:02:14.829Z,47.17
2019-01-31T05:07:18.564Z,49.77
2019-01-31T05:12:22.231Z,49.27
2019-01-31T05:17:25.996Z,48.63
2019-01-31T05:22:29.780Z,49.83
2019-01-31T05:27:33.509Z,48.50
2019-01-31T05:32:37.275Z,49.33
2019-01-31T05:37:40.956Z,47.20
2019-01-31T05:42:44.737Z,49.47
2019-01-31T05:47:48.406Z,46.10
2019-01-31T05:52:52.381Z,50.80
2019-01-31T05:57:56.045Z,50.07
2019-01-31T06:03:00.045Z,50.90
2019-01-31T06:08:03.826Z,49.90
2019-01-31T06:13:07.495Z,50.87
2019-01-31T06:18:11.252Z,49.13
2019-01-31T06:23:14.917Z,51.63
2019-01-31T06:28:18.588Z,51.87
2019-01-31T06:33:22.833Z,50.27
2019-01-31T06:38:26.520Z,52.47
2019-01-31T06:43:30.197Z,49.43
2019-01-31T06:48:34.224Z,50.30
2019-01-31T06:53:37.993Z,56.63
2019-01-31T06:58:41.766Z,54.40
2019-01-31T07:03:46.050Z,53.27
2019-01-31T07:08:50.309Z,61.57
2019-01-31T07:13:54.048Z,55.37
2019-01-31T07:18:57.784Z,55.27
2019-01-31T07:24:01.595Z,57.63
2019-01-31T07:29:05.485Z,54.20
2019-01-31T07:34:09.229Z,51.67
2019-01-31T07:39:12.888Z,56.53
2019-01-31T07:44:16.610Z,57.60
2019-01-31T07:49:20.312Z,55.37
2019-01-31T07:54:24.043Z,51.87
2019-01-31T07:59:27.763Z,54.17
2019-01-31T08:04:31.522Z,56.97
2019-01-31T08:09:35.656Z,53.77
2019-01-31T08:14:39.387Z,53.47
2019-01-31T08:19:43.097Z,55.60
2019-01-31T08:24:47.288Z,53.30
2019-01-31T08:29:52.156Z,53.97
2019-01-31T08:34:57.322Z,53.73
2019-01-31T08:40:01.293Z,50.80
2019-01-31T08:45:05.537Z,51.00
2019-01-31T08:50:13.052Z,53.57
2019-01-31T08:55:16.916Z,54.97
2019-01-31T09:00:22.744Z,56.87
2019-01-31T09:05:26.577Z,52.83
2019-01-31T09:10:32.744Z,50.27
2019-01-31T09:15:36.610Z,48.63
2019-01-31T09:20:47.411Z,51.77
2019-01-31T09:26:29.885Z,48.57
2019-01-31T09:32:16.398Z,49.00
2019-01-31T09:38:12.491Z,48.60
2019-01-31T09:43:40.617Z,49.73
2019-01-31T09:49:00.894Z,45.80
2019-01-31T09:54:09.845Z,45.83
2019-01-31T09:59:23.620Z,49.13
2019-01-31T10:04:42.830Z,47.53
2019-01-31T10:10:41.010Z,44.67
2019-01-31T10:16:05.184Z,39.13
2019-01-31T10:21:38.967Z,36.83
2019-01-31T10:27:18.788Z,35.70
2019-01-31T10:32:51.680Z,33.23
2019-01-31T10:38:19.376Z,33.07
2019-01-31T10:43:28.476Z,38.10
2019-01-31T10:48:53.557Z,39.47
2019-01-31T10:54:25.416Z,35.00
2019-01-31T10:59:55.692Z,34.80
2019-01-31T11:05:16.452Z,37.77
2019-01-31T11:10:28.612Z,35.07
2019-01-31T11:16:00.081Z,34.23
2019-01-31T11:21:57.996Z,30.73
2019-01-31T11:27:39.039Z,32.27
2019-01-31T11:33:27.404Z,28.63
2019-01-31T11:38:43.045Z,27.13
2019-01-31T11:44:25.081Z,30.27
2019-01-31T11:49:56.833Z,31.33
2019-01-31T11:55:57.140Z,30.60
2019-01-31T12:01:00.896Z,29.90
2019-01-31T12:06:04.805Z,27.87
2019-01-31T12:11:08.557Z,31.13
2019-01-31T12:16:12.301Z,30.90
2019-01-31T12:21:16.168Z,29.90
2019-01-31T12:26:19.845Z,27.73
2019-01-31T12:31:23.604Z,31.37
2019-01-31T12:36:28.911Z,30.33
2019-01-31T12:41:32.653Z,28.50
2019-01-31T12:46:36.348Z,24.83
2019-01-31T12:51:40.281Z,25.93
2019-01-31T12:56:43.947Z,25.63
2019-01-31T13:01:47.671Z,25.20
2019-01-31T13:06:51.398Z,26.00
2019-01-31T13:11:55.233Z,25.37
2019-01-31T13:16:58.975Z,24.23
2019-01-31T13:22:02.693Z,25.17
2019-01-31T13:27:06.447Z,23.57
2019-01-31T13:32:10.694Z,26.27
2019-01-31T13:37:14.405Z,29.57
2019-01-31T13:42:18.416Z,26.97
2019-01-31T13:47:22.252Z,28.87
2019-01-31T13:52:26.004Z,30.00
2019-01-31T13:57:29.689Z,29.77
2019-01-31T14:02:33.369Z,32.30
2019-01-31T14:07:37.129Z,34.43
2019-01-31T14:12:40.809Z,33.17
2019-01-31T14:17:44.476Z,36.20
2019-01-31T14:22:48.307Z,38.17
2019-01-31T14:27:52.091Z,41.93
2019-01-31T14:32:56.390Z,47.90
2019-01-31T14:38:00.214Z,54.60
2019-01-31T14:43:04.677Z,58.47
2019-01-31T14:48:08.356Z,56.57
2019-01-31T14:53:12.104Z,55.53
2019-01-31T14:58:15.840Z,56.70
2019-01-31T15:03:19.616Z,66.40
2019-01-31T15:08:23.289Z,57.93
2019-01-31T15:13:26.977Z,56.27
2019-01-31T15:18:30.669Z,58.93
2019-01-31T15:23:34.349Z,53.63
2019-01-31T15:28:38.024Z,51.87
2019-01-31T15:33:41.702Z,57.00
2019-01-31T15:38:45.384Z,58.60
2019-01-31T15:43:49.186Z,55.37
2019-01-31T15:48:52.953Z,52.67
2019-01-31T15:53:56.632Z,56.37
2019-01-31T15:59:00.377Z,57.87
2019-01-31T16:04:04.493Z,57.83
2019-01-31T16:09:09.437Z,60.40
2019-01-31T16:14:13.304Z,64.17
2019-01-31T16:19:16.993Z,59.30
2019-01-31T16:24:20.703Z,58.03
2019-01-31T16:29:24.449Z,57.63
2019-01-31T16:34:28.433Z,71.30
2019-01-31T16:39:33.041Z,69.57
2019-01-31T16:44:36.961Z,61.50
2019-01-31T16:49:43.992Z,58.43
2019-01-31T16:54:47.719Z,59.63
2019-01-31T16:59:51.384Z,61.27
2019-01-31T17:04:55.065Z,59.00
2019-01-31T17:09:58.745Z,60.73
2019-01-31T17:15:02.469Z,59.70
2019-01-31T17:20:09.406Z,75.67
2019-01-31T17:25:13.533Z,64.60
2019-01-31T17:30:19.759Z,61.60
2019-01-31T17:35:23.581Z,55.67
2019-01-31T17:40:29.591Z,58.27
2019-01-31T17:45:33.368Z,58.70
2019-01-31T17:50:37.034Z,59.47
2019-01-31T17:55:41.670Z,58.70
2019-01-31T18:00:51.495Z,63.80
2019-01-31T18:05:55.793Z,63.03
2019-01-31T18:11:00.304Z,62.63
2019-01-31T18:16:04.231Z,62.90
2019-01-31T18:21:07.895Z,62.40
2019-01-31T18:26:11.560Z,61.33
2019-01-31T18:31:15.216Z,59.47
2019-01-31T18:36:18.939Z,68.33
2019-01-31T18:41:22.765Z,65.80
2019-01-31T18:46:32.642Z,63.57
2019-01-31T18:51:36.317Z,62.00
2019-01-31T18:56:40.408Z,66.47
2019-01-31T19:01:44.541Z,66.13
2019-01-31T19:06:49.910Z,61.33
2019-01-31T19:11:53.729Z,61.73
2019-01-31T19:16:57.703Z,57.17
2019-01-31T19:22:01.795Z,59.57
2019-01-31T19:27:06.631Z,61.33
2019-01-31T19:32:10.585Z,73.37
2019-01-31T19:37:14.885Z,58.83
2019-01-31T19:42:18.572Z,61.27
2019-01-31T19:47:22.225Z,62.67
2019-01-31T19:52:26.193Z,62.50
2019-01-31T19:57:31.094Z,67.17
2019-01-31T20:02:35.095Z,69.20
2019-01-31T20:07:39.364Z,67.07
2019-01-31T20:12:43.087Z,70.70
2019-01-31T20:17:47.547Z,74.17
2019-01-31T20:22:53.053Z,72.13
2019-01-31T20:27:57.269Z,73.70
2019-01-31T20:33:06.470Z,70.77
2019-01-31T20:38:12.191Z,70.07
2019-01-31T20:43:16.961Z,76.67
2019-01-31T20:48:21.702Z,76.07
2019-01-31T20:53:25.859Z,79.57
2019-01-31T20:58:30.795Z,75.93
2019-01-31T21:03:35.260Z,78.73
2019-01-31T21:08:39.788Z,77.90
2019-01-31T21:13:43.568Z,77.80
2019-01-31T21:18:48.224Z,80.53
2019-01-31T21:23:52.170Z,81.53
2019-01-31T21:28:56.352Z,76.80
2019-01-31T21:34:00.102Z,73.03
2019-01-31T21:39:06.485Z,79.43
2019-01-31T21:44:10.200Z,73.60
2019-01-31T21:49:13.876Z,76.47
2019-01-31T21:54:17.549Z,79.23
2019-01-31T21:59:21.339Z,78.80
2019-01-31T22:04:25.008Z,79.37
2019-01-31T22:09:28.738Z,74.57
2019-01-31T22:14:32.437Z,77.87
2019-01-31T22:19:36.108Z,77.97
2019-01-31T22:24:39.833Z,78.03
2019-01-31T22:29:43.533Z,75.00
2019-01-31T22:34:47.204Z,78.27
2019-01-31T22:39:50.993Z,76.60
2019-01-31T22:44:54.724Z,81.33
2019-01-31T22:49:58.476Z,72.50
2019-01-31T22:55:02.166Z,76.20
2019-01-31T23:00:15.959Z,76.00
2019-01-31T23:05:19.749Z,80.00
2019-01-31T23:10:23.729Z,73.37
2019-01-31T23:15:27.416Z,77.13
2019-01-31T23:20:31.341Z,76.93
2019-01-31T23:25:40.214Z,74.00
2019-01-31T23:30:40.529Z,71.50
2019-01-31T23:35:44.306Z,71.53
2019-01-31T23:40:47.974Z,70.13
2019-01-31T23:45:51.649Z,69.87
2019-01-31T23:50:55.313Z,76.60
2019-01-31T23:55:58.974Z,78.57
